Time;durP1;ratioP1;P1;durP2;ratioP2;P2;SDS_P1;SDS_P2;PMS_P1;PMS_P2;Temp;Humidity;BMP_temperature;BMP_pressure;BME280_temperature;BME280_humidity;BME280_pressure;Samples;Min_cycle;Max_cycle;Signal;HPM_P1;HPM_P2
2022/06/06 00:01:43;;;;;;;20.60;18.35;;;17.10;97.00;;;;;;5089532;28;20110;-86
2022/06/06 00:04:10;;;;;;;22.58;19.88;;;17.10;97.00;;;;;;5090198;28;20440;-86
2022/06/06 00:06:36;;;;;;;23.30;19.83;;;17.10;97.10;;;;;;5089808;28;20020;-86
2022/06/06 00:09:03;;;;;;;22.75;20.23;;;17.20;97.10;;;;;;5088470;28;20070;-86
2022/06/06 00:11:32;;;;;;;23.63;19.85;;;17.20;97.20;;;;;;5084186;28;20047;-86
2022/06/06 00:13:58;;;;;;;23.98;21.05;;;17.20;97.20;;;;;;5088561;28;20024;-86
2022/06/06 00:16:23;;;;;;;29.15;21.50;;;17.20;97.30;;;;;;5089947;28;20371;-86
2022/06/06 00:18:49;;;;;;;27.08;21.42;;;17.30;97.30;;;;;;5090072;28;20024;-86
2022/06/06 00:21:15;;;;;;;24.42;21.67;;;17.20;97.40;;;;;;5088113;28;20020;-86
2022/06/06 00:23:41;;;;;;;28.70;21.92;;;17.30;97.40;;;;;;5089978;28;20542;-87
2022/06/06 00:26:08;;;;;;;27.38;23.23;;;17.30;97.60;;;;;;5084073;28;20020;-87
2022/06/06 00:28:43;;;;;;;24.83;21.92;;;17.30;97.60;;;;;;5076176;28;20042;-87
2022/06/06 00:36:38;;;;;;;29.33;23.17;;;17.30;97.70;;;;;;5089519;28;20169;-86
2022/06/06 00:39:07;;;;;;;26.70;23.20;;;17.30;97.80;;;;;;5087852;28;20039;-86
2022/06/06 00:41:41;;;;;;;27.38;24.40;;;17.30;97.80;;;;;;5085290;28;20040;-86
2022/06/06 00:44:19;;;;;;;25.73;22.67;;;17.30;97.80;;;;;;5089617;28;20020;-86
2022/06/06 00:46:53;;;;;;;26.95;23.75;;;17.30;97.80;;;;;;5093706;28;20028;-85
2022/06/06 00:49:29;;;;;;;26.30;23.48;;;17.30;98.00;;;;;;5093301;28;20029;-86
2022/06/06 00:51:56;;;;;;;26.85;22.52;;;17.30;98.00;;;;;;5070368;28;20020;-85
2022/06/06 00:54:23;;;;;;;27.08;23.10;;;17.20;98.00;;;;;;5079724;28;20439;-85
2022/06/06 00:56:58;;;;;;;27.65;22.25;;;17.30;98.00;;;;;;5087256;28;20123;-86
2022/06/06 00:59:27;;;;;;;27.38;22.27;;;17.30;98.00;;;;;;5089568;28;20031;-86
2022/06/06 01:01:55;;;;;;;26.98;21.52;;;17.30;98.10;;;;;;5090171;28;20104;-86
2022/06/06 01:04:23;;;;;;;25.48;21.30;;;17.20;98.00;;;;;;5088978;28;20475;-86
2022/06/06 01:06:49;;;;;;;23.70;19.80;;;17.30;98.00;;;;;;5089419;28;20020;-86
2022/06/06 01:09:17;;;;;;;27.42;21.52;;;17.30;97.90;;;;;;5077066;28;20099;-86
2022/06/06 01:11:45;;;;;;;23.65;20.92;;;17.30;97.90;;;;;;5084910;28;20040;-85
2022/06/06 01:14:14;;;;;;;20.45;18.40;;;17.30;97.90;;;;;;5089979;28;20046;-86
2022/06/06 01:16:46;;;;;;;20.88;17.98;;;17.20;97.80;;;;;;5089765;28;20035;-86
2022/06/06 01:19:36;;;;;;;19.27;17.23;;;17.20;97.70;;;;;;5090784;28;20466;-86
2022/06/06 01:22:30;;;;;;;19.88;16.58;;;17.20;97.60;;;;;;5089790;28;20028;-86
2022/06/06 01:25:18;;;;;;;18.45;16.10;;;17.20;97.00;;;;;;5091955;28;20032;-86
2022/06/06 01:27:55;;;;;;;17.20;14.73;;;17.20;96.80;;;;;;5093224;28;20020;-86
2022/06/06 01:30:31;;;;;;;18.58;14.18;;;17.20;96.50;;;;;;5099711;28;20447;-86
2022/06/06 01:32:59;;;;;;;14.00;12.48;;;17.10;96.50;;;;;;5080852;28;20020;-86
2022/06/06 01:35:46;;;;;;;12.65;10.55;;;17.10;96.40;;;;;;5087651;28;20025;-86
2022/06/06 01:38:15;;;;;;;10.63;8.02;;;17.00;96.30;;;;;;5088339;28;20012;-86
2022/06/06 01:41:00;;;;;;;8.82;6.65;;;16.90;96.10;;;;;;5089243;28;20028;-86
2022/06/06 01:43:52;;;;;;;8.02;6.40;;;16.70;96.30;;;;;;5088358;28;20380;-86
2022/06/06 01:46:30;;;;;;;7.28;5.75;;;16.60;96.50;;;;;;5093271;28;20092;-86
2022/06/06 01:48:56;;;;;;;6.63;4.88;;;16.50;96.60;;;;;;5079244;28;20123;-86
2022/06/06 01:51:32;;;;;;;7.13;5.32;;;16.50;96.60;;;;;;5091981;28;20077;-86
2022/06/06 01:53:57;;;;;;;7.78;5.45;;;16.50;96.70;;;;;;5091867;28;20027;-86
2022/06/06 01:56:28;;;;;;;6.63;4.85;;;16.40;96.80;;;;;;5090454;28;20035;-86
2022/06/06 01:58:54;;;;;;;6.60;5.18;;;16.30;96.90;;;;;;5087500;28;20028;-85
2022/06/06 02:01:20;;;;;;;6.35;5.35;;;16.30;97.00;;;;;;5087692;28;20028;-85
2022/06/06 02:03:46;;;;;;;7.00;5.43;;;16.30;97.10;;;;;;5089716;28;20454;-85
2022/06/06 02:06:13;;;;;;;6.75;5.28;;;16.20;97.20;;;;;;5093109;28;20046;-86
2022/06/06 02:08:39;;;;;;;6.72;5.50;;;16.20;97.20;;;;;;5091478;28;20401;-85
2022/06/06 02:11:04;;;;;;;8.90;5.95;;;16.10;97.30;;;;;;5090071;28;20088;-86
2022/06/06 02:13:30;;;;;;;7.93;5.88;;;16.10;97.30;;;;;;5090750;28;20035;-86
2022/06/06 02:16:00;;;;;;;7.68;5.60;;;16.10;97.40;;;;;;5089708;28;20055;-86
2022/06/06 02:18:26;;;;;;;10.70;6.20;;;16.10;97.40;;;;;;5094752;28;20027;-86
2022/06/06 02:20:53;;;;;;;11.77;6.78;;;16.10;97.40;;;;;;5091598;28;20059;-86
2022/06/06 02:23:19;;;;;;;10.98;6.90;;;16.10;97.40;;;;;;5092017;28;20039;-86
2022/06/06 02:25:45;;;;;;;9.73;7.55;;;16.10;97.50;;;;;;5090382;28;20020;-86
2022/06/06 02:28:10;;;;;;;11.63;7.45;;;16.00;97.50;;;;;;5093291;28;20113;-86
2022/06/06 02:30:37;;;;;;;10.48;8.02;;;16.10;97.40;;;;;;5091412;28;20036;-87
2022/06/06 02:33:03;;;;;;;10.98;8.07;;;16.00;97.40;;;;;;5092616;28;20494;-86
2022/06/06 02:35:33;;;;;;;13.10;9.20;;;16.10;97.30;;;;;;5082294;28;20067;-86
2022/06/06 02:37:59;;;;;;;11.55;8.25;;;16.10;97.30;;;;;;5092443;28;20054;-87
2022/06/06 02:40:27;;;;;;;11.13;8.63;;;16.10;97.30;;;;;;5089215;28;20549;-86
2022/06/06 02:42:53;;;;;;;10.48;8.75;;;16.10;97.30;;;;;;5092072;28;20020;-86
2022/06/06 02:45:19;;;;;;;11.38;9.27;;;16.10;97.20;;;;;;5088216;28;20106;-86
2022/06/06 02:47:48;;;;;;;11.73;10.02;;;16.00;97.20;;;;;;5089768;28;20534;-86
2022/06/06 02:50:16;;;;;;;12.38;9.48;;;16.10;97.20;;;;;;5091569;28;20028;-86
2022/06/06 02:52:43;;;;;;;12.73;10.18;;;16.00;97.20;;;;;;5077659;28;20052;-86
2022/06/06 02:55:10;;;;;;;13.88;9.68;;;16.00;97.00;;;;;;5089308;28;20035;-86
2022/06/06 02:57:37;;;;;;;12.55;10.52;;;16.00;97.10;;;;;;5087420;28;20020;-86
2022/06/06 03:00:06;;;;;;;14.20;10.50;;;16.00;97.20;;;;;;5093498;28;20050;-86
2022/06/06 03:02:33;;;;;;;13.57;10.70;;;16.00;97.20;;;;;;5091120;28;20063;-86
2022/06/06 03:04:58;;;;;;;14.15;10.43;;;16.00;97.10;;;;;;5093036;28;20039;-86
2022/06/06 03:07:42;;;;;;;13.82;11.23;;;16.00;97.20;;;;;;5091438;28;20024;-86
2022/06/06 03:10:20;;;;;;;16.17;10.10;;;16.00;97.10;;;;;;5091238;27;20401;-86
2022/06/06 03:13:05;;;;;;;14.70;9.98;;;16.00;96.90;;;;;;5087147;28;20030;-86
2022/06/06 03:22:18;;;;;;;11.93;10.23;;;15.90;96.80;;;;;;5109990;28;20510;-86
2022/06/06 03:24:58;;;;;;;11.93;9.80;;;15.90;96.90;;;;;;5092987;28;20107;-86
2022/06/06 03:27:53;;;;;;;13.18;9.82;;;15.80;96.80;;;;;;5107591;28;20028;-86
2022/06/06 03:30:37;;;;;;;12.25;9.85;;;15.80;96.80;;;;;;5094690;28;20038;-86
2022/06/06 03:33:41;;;;;;;12.65;9.57;;;15.80;96.60;;;;;;5090331;28;20543;-86
2022/06/06 03:36:17;;;;;;;12.65;8.48;;;15.80;96.30;;;;;;5042978;28;20039;-86
2022/06/06 03:39:01;;;;;;;12.18;7.95;;;15.80;96.10;;;;;;5092339;28;20034;-86
2022/06/06 03:41:34;;;;;;;11.15;8.93;;;15.80;95.70;;;;;;5080372;28;20027;-86
2022/06/06 03:44:20;;;;;;;12.00;7.55;;;15.80;95.80;;;;;;5109607;27;20042;-86
2022/06/06 03:47:01;;;;;;;9.23;7.50;;;15.80;95.50;;;;;;5093425;28;20016;-86
2022/06/06 03:49:59;;;;;;;9.77;7.82;;;15.80;95.40;;;;;;5074387;28;20027;-87
2022/06/06 03:52:30;;;;;;;11.50;7.13;;;15.80;95.40;;;;;;5102186;28;20032;-87
2022/06/06 03:55:12;;;;;;;10.15;7.30;;;15.70;95.10;;;;;;5101964;27;20077;-86
2022/06/06 03:57:39;;;;;;;10.45;7.20;;;15.70;95.10;;;;;;5094684;28;20032;-86
2022/06/06 04:00:13;;;;;;;10.95;7.05;;;15.60;95.00;;;;;;5094105;28;20019;-87
2022/06/06 04:02:42;;;;;;;9.63;6.75;;;15.60;95.10;;;;;;5094121;28;20038;-87
2022/06/06 04:05:11;;;;;;;10.77;7.53;;;15.60;95.20;;;;;;5093276;28;20118;-86
2022/06/06 04:07:37;;;;;;;12.32;9.15;;;15.60;95.10;;;;;;5102080;28;20387;-86
2022/06/06 04:10:04;;;;;;;11.68;9.07;;;15.60;95.00;;;;;;5091021;28;20028;-86
2022/06/06 04:12:51;;;;;;;16.95;9.23;;;15.60;95.10;;;;;;5091747;28;20069;-85
2022/06/06 04:15:32;;;;;;;14.07;9.43;;;15.60;94.90;;;;;;5074358;28;20035;-86
2022/06/06 04:18:26;;;;;;;16.02;10.50;;;15.70;94.70;;;;;;5091289;28;20035;-85
2022/06/06 04:21:10;;;;;;;15.00;10.65;;;15.70;94.50;;;;;;5078364;28;20032;-85
2022/06/06 04:24:08;;;;;;;17.98;10.50;;;15.80;94.30;;;;;;5083330;28;20024;-86
2022/06/06 04:26:48;;;;;;;19.65;12.27;;;15.80;94.30;;;;;;5071450;28;20433;-85
2022/06/06 04:29:27;;;;;;;18.83;12.43;;;15.80;94.30;;;;;;5091733;28;20036;-85
2022/06/06 04:32:19;;;;;;;20.73;12.48;;;15.80;94.30;;;;;;5082182;28;20027;-85
2022/06/06 04:34:55;;;;;;;18.05;12.65;;;15.80;94.20;;;;;;5091219;28;20029;-85
2022/06/06 04:37:52;;;;;;;21.65;13.45;;;15.90;93.90;;;;;;5083149;28;20463;-85
2022/06/06 04:40:38;;;;;;;17.15;12.40;;;15.90;93.60;;;;;;5084710;28;20054;-84
2022/06/06 04:43:17;;;;;;;21.02;13.38;;;15.90;93.60;;;;;;5103926;28;20028;-86
2022/06/06 04:45:52;;;;;;;17.52;13.05;;;15.90;93.30;;;;;;5092346;28;20435;-85
2022/06/06 04:48:20;;;;;;;18.75;12.85;;;16.00;93.20;;;;;;5084294;28;20093;-85
2022/06/06 04:50:46;;;;;;;23.15;13.35;;;15.90;92.80;;;;;;5075440;28;20766;-85
2022/06/06 04:53:17;;;;;;;18.70;13.52;;;16.00;93.00;;;;;;5075382;28;20020;-85
2022/06/06 04:55:46;;;;;;;22.70;12.93;;;16.00;92.90;;;;;;5080145;28;20031;-85
2022/06/06 04:58:13;;;;;;;20.40;14.20;;;16.00;93.20;;;;;;5074399;28;20025;-85
2022/06/06 05:00:40;;;;;;;20.75;13.85;;;16.00;93.00;;;;;;5080371;28;20329;-85
2022/06/06 05:03:06;;;;;;;24.52;14.20;;;16.00;93.10;;;;;;5085428;28;20021;-85
2022/06/06 05:05:59;;;;;;;19.98;13.82;;;16.00;93.20;;;;;;5076798;28;20028;-85
2022/06/06 05:08:28;;;;;;;19.42;13.85;;;16.00;93.10;;;;;;5089878;28;20085;-85
2022/06/06 05:11:07;;;;;;;21.35;14.52;;;16.00;92.90;;;;;;5099757;28;20043;-85
2022/06/06 05:13:56;;;;;;;23.95;14.60;;;16.10;93.00;;;;;;5084699;28;20028;-85
2022/06/06 05:16:31;;;;;;;21.38;13.73;;;16.10;92.90;;;;;;5065217;28;20119;-85
2022/06/06 05:19:17;;;;;;;25.58;14.45;;;16.10;93.20;;;;;;5075960;28;20054;-85
2022/06/06 05:22:13;;;;;;;23.98;14.95;;;16.00;93.30;;;;;;5065571;28;20479;-85
2022/06/06 05:24:59;;;;;;;24.17;14.65;;;16.00;93.30;;;;;;5077211;28;20502;-85
2022/06/06 05:27:52;;;;;;;23.00;14.98;;;16.00;93.40;;;;;;5076700;28;20399;-85
2022/06/06 05:30:36;;;;;;;23.55;15.25;;;15.90;93.80;;;;;;5079097;28;20035;-85
2022/06/06 05:33:22;;;;;;;21.13;14.80;;;15.90;94.00;;;;;;5079076;28;20032;-85
2022/06/06 05:36:09;;;;;;;24.38;15.57;;;15.90;94.10;;;;;;5083722;28;20449;-85
2022/06/06 05:39:00;;;;;;;29.42;16.20;;;15.90;94.20;;;;;;5096094;28;20458;-86
2022/06/06 05:41:49;;;;;;;27.02;16.65;;;15.90;94.20;;;;;;5058082;28;20074;-85
2022/06/06 05:44:48;;;;;;;28.70;17.25;;;15.90;93.80;;;;;;5079180;28;20032;-85
2022/06/06 05:47:26;;;;;;;29.55;17.67;;;16.00;93.80;;;;;;5097161;28;20032;-85
2022/06/06 05:50:21;;;;;;;27.92;16.95;;;16.00;93.60;;;;;;5068260;28;20024;-86
2022/06/06 05:53:14;;;;;;;28.20;16.85;;;16.00;93.00;;;;;;5065935;28;20027;-85
2022/06/06 05:56:09;;;;;;;24.25;15.30;;;16.00;92.30;;;;;;5074211;28;20032;-85
2022/06/06 05:58:43;;;;;;;27.45;15.13;;;16.10;91.40;;;;;;5077419;28;20448;-85
2022/06/06 06:01:33;;;;;;;24.75;13.80;;;16.10;90.90;;;;;;5086037;28;20387;-85
2022/06/06 06:04:11;;;;;;;23.87;15.03;;;16.10;90.80;;;;;;5069884;28;20032;-85
2022/06/06 06:07:02;;;;;;;23.30;13.93;;;16.00;90.20;;;;;;5073527;28;20024;-85
2022/06/06 06:10:00;;;;;;;24.35;12.63;;;16.00;89.60;;;;;;5073927;28;20113;-85
2022/06/06 06:13:02;;;;;;;24.30;12.65;;;16.00;89.80;;;;;;5076086;28;20125;-85
2022/06/06 06:15:36;;;;;;;;;;;15.90;89.70;;;;;;5073781;28;20139;-85
2022/06/06 06:18:07;;;;;;;23.00;11.73;;;15.90;89.80;;;;;;5075832;28;20378;-86
2022/06/06 06:20:44;;;;;;;;;;;15.80;89.90;;;;;;5074128;28;20036;-86
2022/06/06 06:23:15;;;;;;;22.27;13.10;;;15.80;89.60;;;;;;5082166;28;19904;-86
2022/06/06 06:25:41;;;;;;;21.95;11.95;;;15.80;89.60;;;;;;5084231;28;20048;-85
2022/06/06 06:28:12;;;;;;;21.33;12.68;;;15.70;89.60;;;;;;5075703;28;20194;-85
2022/06/06 06:30:44;;;;;;;20.80;12.88;;;15.70;89.70;;;;;;5073629;28;20039;-86
2022/06/06 06:33:33;;;;;;;19.77;12.20;;;15.60;90.20;;;;;;5074688;28;20036;-86
2022/06/06 06:36:11;;;;;;;23.27;12.85;;;15.60;90.00;;;;;;5089138;28;20035;-85
2022/06/06 06:39:11;;;;;;;21.60;13.32;;;15.60;90.20;;;;;;5074422;28;20467;-86
2022/06/06 06:41:52;;;;;;;19.58;12.00;;;15.70;90.10;;;;;;5065111;28;20368;-86
2022/06/06 06:44:29;;;;;;;18.58;11.80;;;15.70;90.30;;;;;;5093852;28;20039;-86
2022/06/06 06:46:57;;;;;;;22.02;11.85;;;15.70;90.00;;;;;;5060348;28;20059;-86
2022/06/06 06:49:53;;;;;;;19.75;11.30;;;15.70;89.90;;;;;;5065872;28;20024;-86
2022/06/06 06:52:49;;;;;;;19.05;10.82;;;15.70;89.40;;;;;;5075292;28;20115;-86
2022/06/06 06:55:27;;;;;;;17.10;10.98;;;15.70;89.20;;;;;;5078212;28;20541;-86
2022/06/06 06:58:08;;;;;;;15.48;10.32;;;15.70;89.20;;;;;;5061823;28;20031;-86
2022/06/06 07:00:46;;;;;;;15.88;9.32;;;15.70;89.00;;;;;;5092522;28;20024;-85
2022/06/06 07:10:03;;;;;;;14.65;8.43;;;15.80;88.00;;;;;;5096683;28;20066;-86
2022/06/06 07:12:55;;;;;;;15.65;8.43;;;15.80;88.20;;;;;;5056967;28;20503;-86
2022/06/06 07:15:54;;;;;;;13.05;7.95;;;15.80;88.00;;;;;;5091676;28;20028;-86
2022/06/06 07:18:25;;;;;;;17.98;8.65;;;15.80;87.70;;;;;;5064291;28;20043;-86
2022/06/06 07:20:52;;;;;;;11.60;8.40;;;15.80;87.90;;;;;;5070857;28;20367;-86
2022/06/06 07:23:21;;;;;;;16.33;9.02;;;15.80;88.10;;;;;;5060771;28;20319;-86
2022/06/06 07:25:49;;;;;;;15.00;9.32;;;15.80;88.10;;;;;;5088006;28;20645;-86
2022/06/06 07:28:23;;;;;;;13.95;8.27;;;15.80;88.20;;;;;;5073619;28;20020;-86
2022/06/06 07:31:11;;;;;;;15.85;8.85;;;15.70;88.30;;;;;;5060601;28;20033;-86
2022/06/06 07:33:50;;;;;;;13.20;7.80;;;15.80;88.40;;;;;;5073542;28;20039;-86
2022/06/06 07:36:24;;;;;;;15.70;7.88;;;15.80;88.70;;;;;;5089174;28;20507;-86
2022/06/06 07:38:49;;;;;;;12.60;8.45;;;15.80;88.10;;;;;;5070376;28;20051;-85
2022/06/06 07:41:37;;;;;;;11.18;6.95;;;15.90;87.60;;;;;;5072444;28;20486;-86
2022/06/06 07:44:05;;;;;;;14.13;7.72;;;16.10;87.30;;;;;;5073783;28;20118;-86
2022/06/06 07:47:05;;;;;;;12.10;7.00;;;16.30;86.50;;;;;;5070607;28;20028;-86
2022/06/06 07:50:01;;;;;;;13.35;6.88;;;16.50;85.70;;;;;;5072033;28;20475;-86
2022/06/06 07:53:10;;;;;;;9.98;5.85;;;16.90;84.50;;;;;;5070539;28;20032;-87
2022/06/06 07:55:57;;;;;;;11.32;6.53;;;17.10;82.10;;;;;;5012754;28;20492;-86
2022/06/06 07:58:45;;;;;;;10.75;5.18;;;17.30;82.00;;;;;;5012793;28;20047;-86
2022/06/06 08:01:26;;;;;;;10.98;5.20;;;17.50;81.10;;;;;;5056217;28;20448;-86
2022/06/06 08:04:07;;;;;;;11.13;4.82;;;17.40;80.60;;;;;;5060996;28;20372;-86
2022/06/06 08:06:49;;;;;;;8.18;4.70;;;17.40;80.60;;;;;;5072521;28;20086;-86
2022/06/06 08:10:00;;;;;;;7.85;4.97;;;17.40;81.40;;;;;;5095556;28;20031;-87
2022/06/06 08:12:58;;;;;;;9.80;4.93;;;17.20;81.20;;;;;;5069152;28;20127;-88
2022/06/06 08:15:44;;;;;;;11.43;5.38;;;17.00;80.90;;;;;;5072512;28;20452;-86
2022/06/06 08:18:37;;;;;;;10.82;5.65;;;17.10;81.80;;;;;;5084827;28;20111;-87
2022/06/06 08:21:16;;;;;;;9.90;5.35;;;17.10;81.70;;;;;;5072764;28;20024;-86
2022/06/06 08:23:43;;;;;;;11.40;5.68;;;17.10;81.20;;;;;;5069530;28;20056;-86
2022/06/06 08:26:10;;;;;;;8.35;5.40;;;17.00;81.10;;;;;;5070979;28;20024;-86
2022/06/06 08:28:40;;;;;;;8.98;5.32;;;17.00;81.80;;;;;;5091691;28;20058;-86
2022/06/06 08:31:07;;;;;;;10.30;5.30;;;16.90;82.10;;;;;;5070175;28;20483;-86
2022/06/06 08:33:33;;;;;;;10.10;4.53;;;16.90;82.10;;;;;;5065771;28;20032;-87
2022/06/06 08:36:32;;;;;;;7.32;4.72;;;17.20;82.30;;;;;;5085256;28;20410;-86
2022/06/06 08:39:31;;;;;;;8.57;5.03;;;17.30;81.30;;;;;;5085063;28;20031;-86
2022/06/06 08:42:10;;;;;;;10.50;5.25;;;17.60;81.30;;;;;;5085252;28;20282;-86
2022/06/06 08:44:50;;;;;;;9.27;5.63;;;17.70;81.40;;;;;;5081100;28;20032;-85
2022/06/06 08:47:31;;;;;;;11.00;6.33;;;17.60;80.50;;;;;;5071760;28;20047;-85
2022/06/06 08:53:05;;;;;;;9.60;5.45;;;17.60;79.90;;;;;;5080654;28;20077;-86
2022/06/06 08:55:50;;;;;;;8.77;5.38;;;17.80;80.40;;;;;;5069367;28;20055;-86
2022/06/06 08:58:42;;;;;;;8.25;5.68;;;18.00;81.20;;;;;;5069085;28;20127;-85
2022/06/06 09:01:27;;;;;;;8.43;5.35;;;17.80;80.50;;;;;;5082556;28;20032;-85
2022/06/06 09:04:40;;;;;;;7.72;5.45;;;17.80;80.10;;;;;;5069902;28;20024;-85
2022/06/06 09:07:14;;;;;;;7.55;5.10;;;18.00;80.60;;;;;;5069384;28;20088;-85
2022/06/06 09:10:00;;;;;;;9.48;5.38;;;18.10;80.00;;;;;;5085032;28;20475;-85
2022/06/06 09:12:46;;;;;;;7.35;5.10;;;18.10;79.40;;;;;;5109015;28;20050;-86
2022/06/06 09:15:43;;;;;;;9.85;5.28;;;18.10;80.30;;;;;;5080764;28;20044;-85
2022/06/06 09:18:37;;;;;;;8.70;5.05;;;17.90;80.20;;;;;;5090359;28;20027;-85
2022/06/06 09:21:38;;;;;;;10.63;5.22;;;18.00;81.10;;;;;;5108904;28;20020;-86
2022/06/06 09:24:35;;;;;;;9.63;5.22;;;18.00;81.40;;;;;;5057152;28;20468;-86
2022/06/06 09:27:06;;;;;;;8.63;4.82;;;17.90;81.30;;;;;;5096325;28;20505;-85
2022/06/06 09:29:44;;;;;;;10.02;5.30;;;17.60;82.40;;;;;;5109833;28;20026;-85
2022/06/06 09:32:21;;;;;;;9.07;5.55;;;17.50;84.10;;;;;;5111575;28;20478;-85
2022/06/06 09:35:24;;;;;;;7.60;5.00;;;17.40;84.90;;;;;;5092075;28;20479;-85
2022/06/06 09:38:01;;;;;;;12.77;5.95;;;17.50;85.40;;;;;;5090582;28;20486;-86
2022/06/06 09:40:47;;;;;;;10.57;5.80;;;17.70;84.90;;;;;;5101344;28;20051;-85
2022/06/06 09:43:48;;;;;;;9.32;5.38;;;17.90;84.20;;;;;;5086883;28;20432;-85
2022/06/06 09:46:45;;;;;;;8.80;5.38;;;18.30;83.80;;;;;;5096839;28;20019;-86
2022/06/06 09:49:32;;;;;;;10.02;5.63;;;19.10;80.30;;;;;;5085173;28;20019;-85
2022/06/06 09:52:32;;;;;;;8.77;5.55;;;19.70;77.50;;;;;;5113892;28;20036;-86
2022/06/06 10:00:56;;;;;;;9.48;5.93;;;21.20;71.30;;;;;;5100084;28;20162;-86
2022/06/06 10:04:07;;;;;;;10.90;6.50;;;20.80;72.80;;;;;;5094034;28;20524;-86
2022/06/06 10:06:53;;;;;;;8.90;6.20;;;20.40;73.80;;;;;;5092108;28;20024;-86
2022/06/06 10:09:43;;;;;;;9.10;6.07;;;19.80;74.90;;;;;;5112409;28;20536;-86
2022/06/06 10:12:34;;;;;;;10.90;6.53;;;19.40;74.80;;;;;;5088516;28;20048;-85
2022/06/06 10:15:21;;;;;;;10.35;6.38;;;19.20;76.20;;;;;;5093193;28;20122;-86
2022/06/06 10:18:13;;;;;;;10.45;6.18;;;19.00;75.90;;;;;;5081548;28;20391;-86
2022/06/06 10:21:08;;;;;;;10.02;5.72;;;19.20;76.60;;;;;;5073884;28;20441;-85
2022/06/06 10:23:48;;;;;;;10.93;6.53;;;19.10;75.30;;;;;;5088963;28;20035;-86
2022/06/06 10:26:26;;;;;;;8.68;6.30;;;18.90;75.20;;;;;;5099159;28;20546;-85
2022/06/06 10:29:10;;;;;;;10.20;5.63;;;18.70;76.20;;;;;;5094507;28;20367;-86
2022/06/06 10:32:10;;;;;;;9.77;6.28;;;18.50;76.00;;;;;;5083895;28;20054;-86
2022/06/06 10:35:17;;;;;;;9.98;6.90;;;18.40;76.30;;;;;;5082457;28;20028;-85
2022/06/06 10:37:58;;;;;;;10.52;6.95;;;18.40;77.00;;;;;;5094373;28;20038;-86
2022/06/06 10:40:36;;;;;;;10.75;6.45;;;18.80;76.90;;;;;;5077854;28;20312;-86
2022/06/06 10:43:18;;;;;;;10.05;6.88;;;20.00;75.50;;;;;;5091338;28;20039;-86
2022/06/06 10:46:06;;;;;;;10.80;6.90;;;20.60;71.20;;;;;;5093164;28;20119;-86
2022/06/06 10:49:00;;;;;;;9.57;5.75;;;21.20;70.80;;;;;;5081954;28;20016;-86
2022/06/06 10:51:45;;;;;;;10.18;5.80;;;21.70;68.50;;;;;;5092046;28;20016;-87
2022/06/06 10:54:49;;;;;;;8.32;5.70;;;21.00;67.60;;;;;;5078711;28;20028;-86
2022/06/06 10:57:44;;;;;;;8.60;4.60;;;20.80;69.90;;;;;;5081937;28;20032;-87
2022/06/06 11:00:22;;;;;;;6.10;3.67;;;20.40;67.80;;;;;;5094671;28;20024;-86
2022/06/06 11:03:07;;;;;;;5.68;2.75;;;20.20;63.60;;;;;;5093686;28;20028;-86
2022/06/06 11:06:15;;;;;;;7.93;3.58;;;20.70;63.20;;;;;;5091852;28;20123;-87
2022/06/06 11:09:17;;;;;;;11.88;3.67;;;21.30;60.20;;;;;;5083684;28;20473;-86
2022/06/06 11:12:04;;;;;;;5.55;3.33;;;22.00;59.50;;;;;;5079299;28;20067;-87
2022/06/06 11:14:29;;;;;;;7.22;3.20;;;22.50;57.60;;;;;;5088119;28;20487;-87
2022/06/06 11:16:58;;;;;;;7.72;3.40;;;23.10;56.90;;;;;;5093218;28;20031;-88
2022/06/06 11:19:42;;;;;;;7.40;2.97;;;23.20;57.10;;;;;;5094740;28;20020;-87
2022/06/06 11:22:31;;;;;;;5.47;2.55;;;23.30;57.20;;;;;;5092740;28;20020;-87
2022/06/06 11:25:11;;;;;;;5.05;2.30;;;22.60;53.80;;;;;;5082173;28;20029;-87
2022/06/06 11:28:05;;;;;;;5.50;2.20;;;22.80;52.50;;;;;;5090761;28;20147;-86
2022/06/06 11:30:49;;;;;;;3.95;2.35;;;22.90;54.20;;;;;;5090871;28;20031;-85
2022/06/06 11:33:49;;;;;;;6.05;2.65;;;23.00;52.20;;;;;;5083846;28;20035;-86
2022/06/06 11:36:42;;;;;;;6.88;2.47;;;22.70;50.10;;;;;;5088991;28;20025;-87
2022/06/06 11:39:34;;;;;;;3.00;2.20;;;21.90;52.10;;;;;;5108680;28;20383;-87
2022/06/06 11:42:27;;;;;;;4.15;1.95;;;21.60;53.30;;;;;;5095372;28;20202;-87
2022/06/06 11:45:12;;;;;;;5.63;1.90;;;21.50;53.10;;;;;;5093263;28;20032;-86
2022/06/06 11:47:59;;;;;;;3.17;1.80;;;22.20;51.70;;;;;;5079411;28;20066;-86
2022/06/06 11:50:52;;;;;;;5.68;2.15;;;23.20;51.10;;;;;;5096055;28;20390;-86
2022/06/06 11:54:08;;;;;;;3.13;1.92;;;23.90;51.60;;;;;;5100436;28;20036;-87
2022/06/06 11:57:12;;;;;;;4.18;1.90;;;24.10;46.70;;;;;;5065530;28;20028;-87
2022/06/06 11:59:55;;;;;;;3.45;1.90;;;24.00;46.30;;;;;;5083467;28;20028;-86
2022/06/06 12:02:24;;;;;;;3.25;1.65;;;23.40;48.40;;;;;;5094420;28;20368;-86
2022/06/06 12:05:17;;;;;;;2.97;2.08;;;23.50;50.70;;;;;;5090902;28;20070;-87
2022/06/06 12:08:20;;;;;;;2.35;1.60;;;23.60;47.30;;;;;;5104778;28;20046;-87
2022/06/06 12:11:10;;;;;;;4.65;2.17;;;23.30;50.40;;;;;;5102300;28;20050;-86
2022/06/06 12:14:05;;;;;;;3.30;1.65;;;24.00;49.30;;;;;;5094133;28;20424;-87
2022/06/06 12:16:55;;;;;;;2.45;1.83;;;23.00;51.20;;;;;;5102415;28;20119;-86
2022/06/06 12:20:02;;;;;;;4.80;2.10;;;23.10;51.60;;;;;;5114109;28;20023;-86
2022/06/06 12:22:48;;;;;;;5.25;2.20;;;22.50;51.70;;;;;;5091043;28;20635;-87
2022/06/06 12:25:32;;;;;;;3.13;1.80;;;22.30;52.60;;;;;;5092308;28;20022;-86
2022/06/06 12:28:19;;;;;;;3.40;1.73;;;21.90;54.00;;;;;;5080930;28;20032;-86
2022/06/06 12:31:02;;;;;;;3.50;1.80;;;21.50;55.50;;;;;;5102726;27;20028;-86
2022/06/06 12:33:37;;;;;;;4.88;2.30;;;21.00;55.10;;;;;;5095438;28;20483;-87
2022/06/06 12:36:15;;;;;;;2.78;1.50;;;20.90;54.70;;;;;;5093617;28;20028;-87
2022/06/06 12:39:01;;;;;;;3.30;1.67;;;21.50;52.60;;;;;;5094029;28;20031;-86
2022/06/06 12:41:58;;;;;;;4.10;1.60;;;22.60;52.60;;;;;;5091887;28;20030;-86
2022/06/06 12:44:37;;;;;;;4.35;1.50;;;23.70;49.90;;;;;;5094994;28;20148;-88
2022/06/06 12:47:21;;;;;;;4.22;1.45;;;23.10;47.10;;;;;;5094084;28;20093;-87
2022/06/06 12:50:20;;;;;;;2.80;1.60;;;23.20;47.50;;;;;;5094036;28;20103;-87
2022/06/06 12:53:15;;;;;;;5.07;1.70;;;23.70;47.10;;;;;;5074438;28;20024;-87
2022/06/06 12:56:17;;;;;;;2.35;1.17;;;24.40;46.30;;;;;;5105254;28;20084;-86
2022/06/06 12:58:44;;;;;;;5.13;1.17;;;24.30;46.60;;;;;;5123839;28;20045;-87
2022/06/06 13:01:40;;;;;;;2.75;1.30;;;24.00;47.90;;;;;;5091153;28;20416;-86
2022/06/06 13:04:42;;;;;;;3.70;1.10;;;24.40;47.20;;;;;;5111409;28;20024;-86
2022/06/06 13:07:33;;;;;;;1.75;1.02;;;23.90;46.70;;;;;;5099440;28;20035;-86
2022/06/06 13:10:25;;;;;;;1.80;1.00;;;25.20;45.80;;;;;;5087216;28;20023;-86
2022/06/06 13:13:09;;;;;;;3.75;0.98;;;25.10;44.30;;;;;;5112410;28;20030;-86
2022/06/06 13:15:42;;;;;;;2.35;1.02;;;24.00;45.10;;;;;;5104020;28;20042;-86
2022/06/06 13:18:22;;;;;;;1.77;1.00;;;23.90;46.80;;;;;;5113205;28;20032;-86
2022/06/06 13:21:10;;;;;;;2.40;1.02;;;23.90;47.80;;;;;;5097682;28;20023;-86
2022/06/06 13:23:47;;;;;;;3.45;0.88;;;24.40;44.40;;;;;;5097423;28;20107;-87
2022/06/06 13:26:27;;;;;;;2.13;1.27;;;25.10;44.50;;;;;;5080578;28;20588;-87
2022/06/06 13:28:54;;;;;;;;;;;26.00;43.90;;;;;;5113572;27;20055;-86
2022/06/06 13:31:37;;;;;;;1.05;0.65;;;25.70;41.70;;;;;;5115173;27;19911;-87
2022/06/06 13:34:42;;;;;;;1.67;0.93;;;25.50;42.10;;;;;;5100179;28;20061;-87
2022/06/06 13:37:28;;;;;;;1.83;0.80;;;25.20;40.40;;;;;;5096537;28;20506;-87
2022/06/06 13:40:02;;;;;;;0.80;0.70;;;25.00;41.00;;;;;;5102997;27;20043;-87
2022/06/06 13:42:38;;;;;;;1.63;0.75;;;25.70;42.40;;;;;;5096358;28;20063;-88
2022/06/06 13:45:16;;;;;;;1.63;1.00;;;25.30;39.80;;;;;;5080957;28;20024;-87
2022/06/06 13:48:12;;;;;;;1.13;0.90;;;25.30;41.60;;;;;;5115385;28;20027;-87
2022/06/06 13:51:04;;;;;;;2.33;0.80;;;24.70;43.00;;;;;;5094620;28;20092;-86
2022/06/06 13:53:56;;;;;;;1.48;0.60;;;26.30;40.60;;;;;;5096570;28;20031;-87
2022/06/06 13:56:50;;;;;;;1.75;0.90;;;26.20;39.90;;;;;;5093165;28;20019;-87
2022/06/06 14:00:02;;;;;;;1.75;0.80;;;26.70;37.60;;;;;;5116141;28;20378;-87
2022/06/06 14:02:58;;;;;;;2.13;0.98;;;25.90;39.90;;;;;;5084882;28;20043;-87
2022/06/06 14:05:39;;;;;;;2.17;0.70;;;25.80;40.70;;;;;;5091441;27;20114;-87
2022/06/06 14:08:15;;;;;;;2.55;1.00;;;26.40;39.10;;;;;;5097325;28;20030;-87
2022/06/06 14:11:02;;;;;;;2.13;1.00;;;25.50;42.60;;;;;;5093995;28;20486;-86
2022/06/06 14:13:52;;;;;;;2.58;0.90;;;26.00;41.60;;;;;;5121623;27;20027;-87
2022/06/06 14:16:27;;;;;;;0.60;0.60;;;26.40;38.80;;;;;;5115351;27;20035;-87
2022/06/06 14:18:58;;;;;;;1.40;0.75;;;26.20;38.30;;;;;;5095669;28;20496;-87